Time;durP1;ratioP1;P1;durP2;ratioP2;P2;SDS_P1;SDS_P2;PMS_P1;PMS_P2;Temp;Humidity;BMP_temperature;BMP_pressure;BME280_temperature;BME280_humidity;BME280_pressure;Samples;Min_cycle;Max_cycle;Signal;HPM_P1;HPM_P2
2023/12/17 00:01:05;;;;;;;11.77;9.52;;;;;;;;;;5102694;28;20051;-77
2023/12/17 00:03:31;;;;;;;13.93;9.85;;;;;;;;;;5085544;28;20046;-77
2023/12/17 00:05:57;;;;;;;11.13;9.80;;;;;;;;;;5086277;28;20051;-77
2023/12/17 00:08:23;;;;;;;13.57;10.07;;;;;;;;;;5083473;28;20044;-77
2023/12/17 00:10:50;;;;;;;11.38;9.10;;;;;;;;;;5099088;28;20044;-77
2023/12/17 00:13:16;;;;;;;9.88;7.63;;;;;;;;;;5116861;28;20036;-78
2023/12/17 00:15:42;;;;;;;10.00;8.07;;;;;;;;;;5099305;28;20052;-77
2023/12/17 00:18:09;;;;;;;9.10;7.63;;;;;;;;;;5082119;28;20059;-77
2023/12/17 00:20:35;;;;;;;10.40;7.63;;;;;;;;;;5098892;28;20044;-77
2023/12/17 00:23:04;;;;;;;8.50;7.68;;;;;;;;;;5116838;28;20039;-77
2023/12/17 00:25:30;;;;;;;10.23;7.50;;;;;;;;;;5099077;28;20044;-77
2023/12/17 00:27:56;;;;;;;8.63;7.55;;;;;;;;;;5099670;28;20059;-77
2023/12/17 00:30:22;;;;;;;11.05;8.15;;;;;;;;;;5099060;28;20054;-77
2023/12/17 00:32:48;;;;;;;7.85;6.97;;;;;;;;;;5082060;28;20395;-77
2023/12/17 00:35:14;;;;;;;8.05;7.25;;;;;;;;;;5098722;28;20066;-77
2023/12/17 00:37:40;;;;;;;8.45;7.60;;;;;;;;;;5098689;28;20051;-77
2023/12/17 00:40:07;;;;;;;11.27;7.65;;;;;;;;;;5081668;28;20046;-77
2023/12/17 00:42:33;;;;;;;11.88;7.45;;;;;;;;;;5098514;28;20048;-77
2023/12/17 00:44:59;;;;;;;8.75;7.80;;;;;;;;;;5098358;28;20135;-77
2023/12/17 00:47:25;;;;;;;11.55;7.45;;;;;;;;;;5098428;28;20073;-77
2023/12/17 00:49:52;;;;;;;8.38;7.40;;;;;;;;;;5081776;28;20048;-77
2023/12/17 00:52:22;;;;;;;10.95;8.02;;;;;;;;;;5082127;28;20039;-77
2023/12/17 00:54:48;;;;;;;9.25;7.32;;;;;;;;;;5081183;28;20059;-77
2023/12/17 00:57:14;;;;;;;13.45;8.00;;;;;;;;;;5098531;28;20442;-76
2023/12/17 00:59:40;;;;;;;12.82;8.63;;;;;;;;;;5098472;28;20054;-77
2023/12/17 01:02:06;;;;;;;11.77;8.15;;;;;;;;;;5098118;28;20047;-77
2023/12/17 01:04:33;;;;;;;9.38;7.72;;;;;;;;;;5097836;28;20506;-77
2023/12/17 01:06:59;;;;;;;12.70;7.68;;;;;;;;;;5081498;28;20177;-77
2023/12/17 01:09:25;;;;;;;10.52;8.80;;;;;;;;;;5098027;28;20487;-77
2023/12/17 01:11:51;;;;;;;10.10;8.48;;;;;;;;;;5097448;28;20632;-77
2023/12/17 01:14:17;;;;;;;11.85;8.52;;;;;;;;;;5097842;28;20138;-77
2023/12/17 01:16:43;;;;;;;13.40;8.65;;;;;;;;;;5097819;28;20043;-77
2023/12/17 01:19:10;;;;;;;12.30;8.52;;;;;;;;;;5115647;28;20047;-77
2023/12/17 01:21:36;;;;;;;13.57;9.93;;;;;;;;;;5098171;28;20051;-77
2023/12/17 01:24:02;;;;;;;10.82;9.32;;;;;;;;;;5098553;28;20043;-77
2023/12/17 01:26:29;;;;;;;13.43;9.98;;;;;;;;;;5097700;28;20126;-77
2023/12/17 01:28:55;;;;;;;12.98;10.32;;;;;;;;;;5080559;28;20051;-77
2023/12/17 01:31:21;;;;;;;16.92;9.70;;;;;;;;;;5097761;28;20093;-75
2023/12/17 01:33:47;;;;;;;13.25;9.52;;;;;;;;;;5081095;28;20447;-77
2023/12/17 01:36:13;;;;;;;18.83;10.52;;;;;;;;;;5097490;28;20055;-77
2023/12/17 01:38:39;;;;;;;14.20;9.35;;;;;;;;;;5080591;28;20054;-77
2023/12/17 01:41:06;;;;;;;14.32;10.13;;;;;;;;;;5097401;28;20044;-77
2023/12/17 01:43:33;;;;;;;13.98;9.45;;;;;;;;;;5115792;28;20047;-77
2023/12/17 01:46:00;;;;;;;15.15;10.27;;;;;;;;;;5097510;28;20486;-77
2023/12/17 01:48:26;;;;;;;13.52;9.90;;;;;;;;;;5080297;28;20104;-77
2023/12/17 01:50:54;;;;;;;12.10;10.45;;;;;;;;;;5097240;28;20051;-77
2023/12/17 01:53:20;;;;;;;12.05;9.55;;;;;;;;;;5079815;28;20059;-77
2023/12/17 01:55:46;;;;;;;11.95;10.13;;;;;;;;;;5097400;28;20121;-77
2023/12/17 01:58:13;;;;;;;14.10;10.23;;;;;;;;;;5097104;28;20052;-77
2023/12/17 02:00:39;;;;;;;10.88;9.60;;;;;;;;;;5097020;28;20051;-77
2023/12/17 02:03:05;;;;;;;12.55;9.93;;;;;;;;;;5080097;28;20043;-77
2023/12/17 02:05:32;;;;;;;13.45;11.02;;;;;;;;;;5080301;28;20134;-76
2023/12/17 02:07:58;;;;;;;13.10;10.55;;;;;;;;;;5097742;28;20039;-76
2023/12/17 02:10:25;;;;;;;14.75;9.73;;;;;;;;;;5096863;28;20086;-76
2023/12/17 02:12:51;;;;;;;14.57;11.05;;;;;;;;;;5079780;28;20089;-76
2023/12/17 02:15:17;;;;;;;13.25;10.35;;;;;;;;;;5080084;28;20047;-76
2023/12/17 02:17:43;;;;;;;14.38;9.65;;;;;;;;;;5096714;28;20403;-76
2023/12/17 02:20:09;;;;;;;14.43;11.02;;;;;;;;;;5097475;28;20043;-76
2023/12/17 02:22:36;;;;;;;16.27;10.32;;;;;;;;;;5096733;28;20461;-76
2023/12/17 02:25:03;;;;;;;12.68;9.48;;;;;;;;;;5096825;28;20055;-76
2023/12/17 02:27:29;;;;;;;12.70;10.52;;;;;;;;;;5097356;28;20357;-76
2023/12/17 02:29:55;;;;;;;15.40;10.82;;;;;;;;;;5096576;28;20391;-76
2023/12/17 02:32:22;;;;;;;15.10;10.13;;;;;;;;;;5079955;28;20079;-76
2023/12/17 02:34:48;;;;;;;15.43;10.80;;;;;;;;;;5096446;28;20134;-76
2023/12/17 02:37:15;;;;;;;12.63;10.45;;;;;;;;;;5096494;28;20040;-76
2023/12/17 02:39:41;;;;;;;11.60;9.55;;;;;;;;;;5079710;28;20057;-76
2023/12/17 02:42:07;;;;;;;15.18;8.85;;;;;;;;;;5096691;28;20130;-76
2023/12/17 02:44:34;;;;;;;13.40;9.43;;;;;;;;;;5096244;28;20124;-76
2023/12/17 02:47:00;;;;;;;13.98;10.43;;;;;;;;;;5097101;28;20050;-76
2023/12/17 02:49:27;;;;;;;12.15;9.60;;;;;;;;;;5080270;28;20052;-76
2023/12/17 02:51:53;;;;;;;14.27;9.55;;;;;;;;;;5095911;28;20502;-76
2023/12/17 02:54:19;;;;;;;12.40;10.35;;;;;;;;;;5095886;28;20391;-76
2023/12/17 02:56:46;;;;;;;15.10;9.75;;;;;;;;;;5097042;28;20126;-76
2023/12/17 02:59:12;;;;;;;10.55;9.35;;;;;;;;;;5096174;28;20448;-76
2023/12/17 03:01:42;;;;;;;11.73;9.98;;;;;;;;;;5096125;28;20082;-76
2023/12/17 03:04:09;;;;;;;15.82;9.68;;;;;;;;;;5079374;28;20052;-76
2023/12/17 03:06:36;;;;;;;13.07;10.98;;;;;;;;;;5096102;28;20053;-76
2023/12/17 03:09:02;;;;;;;10.98;9.77;;;;;;;;;;5095896;28;20530;-76
2023/12/17 03:11:28;;;;;;;11.50;9.50;;;;;;;;;;5079273;28;20043;-76
2023/12/17 03:13:55;;;;;;;12.30;9.55;;;;;;;;;;5078865;28;20048;-76
2023/12/17 03:16:21;;;;;;;12.32;9.30;;;;;;;;;;5096324;28;20079;-76
2023/12/17 03:18:47;;;;;;;11.15;9.10;;;;;;;;;;5096075;28;20050;-76
2023/12/17 03:21:13;;;;;;;11.23;9.52;;;;;;;;;;5096000;28;20047;-76
2023/12/17 03:23:39;;;;;;;11.60;8.93;;;;;;;;;;5096469;28;20081;-76
2023/12/17 03:26:06;;;;;;;12.95;8.90;;;;;;;;;;5095580;28;20043;-76
2023/12/17 03:28:33;;;;;;;11.20;9.68;;;;;;;;;;5095869;28;20519;-76
2023/12/17 03:30:59;;;;;;;12.18;8.98;;;;;;;;;;5113783;28;20054;-76
2023/12/17 03:33:25;;;;;;;10.82;8.57;;;;;;;;;;5095853;28;20441;-76
2023/12/17 03:35:51;;;;;;;11.35;9.23;;;;;;;;;;5096680;28;20131;-76
2023/12/17 03:38:17;;;;;;;12.27;9.00;;;;;;;;;;5096623;28;20043;-76
2023/12/17 03:40:43;;;;;;;16.92;8.95;;;;;;;;;;5095489;28;20123;-76
2023/12/17 03:43:09;;;;;;;14.77;9.45;;;;;;;;;;5096410;28;20051;-76
2023/12/17 03:45:36;;;;;;;14.90;9.35;;;;;;;;;;5083134;28;20085;-76
2023/12/17 03:48:02;;;;;;;11.70;8.73;;;;;;;;;;5099573;28;20075;-76
2023/12/17 03:50:28;;;;;;;15.25;10.13;;;;;;;;;;5099833;28;20058;-77
2023/12/17 03:52:55;;;;;;;10.18;9.02;;;;;;;;;;5098814;28;20040;-76
2023/12/17 03:55:21;;;;;;;10.45;9.30;;;;;;;;;;5099673;28;20503;-77
2023/12/17 03:57:47;;;;;;;11.80;9.40;;;;;;;;;;5099383;28;20059;-77
2023/12/17 04:00:13;;;;;;;10.35;9.35;;;;;;;;;;5099626;28;20055;-76
2023/12/17 04:02:39;;;;;;;12.93;9.60;;;;;;;;;;5099231;28;20047;-76
2023/12/17 04:05:06;;;;;;;11.38;9.10;;;;;;;;;;5099239;28;20043;-76
2023/12/17 04:07:32;;;;;;;13.93;9.07;;;;;;;;;;5099291;28;20137;-76
2023/12/17 04:10:00;;;;;;;13.23;9.55;;;;;;;;;;5100052;28;20047;-76
2023/12/17 04:12:27;;;;;;;10.27;9.20;;;;;;;;;;5099823;28;20391;-76
2023/12/17 04:14:53;;;;;;;13.57;9.07;;;;;;;;;;5098770;28;20097;-76
2023/12/17 04:17:19;;;;;;;10.70;9.52;;;;;;;;;;5099085;28;20047;-76
2023/12/17 04:19:45;;;;;;;12.55;9.63;;;;;;;;;;5098968;28;20048;-76
2023/12/17 04:22:11;;;;;;;12.02;9.65;;;;;;;;;;5099777;28;20043;-76
2023/12/17 04:24:37;;;;;;;10.55;9.45;;;;;;;;;;5098933;28;20046;-76
2023/12/17 04:27:04;;;;;;;12.48;9.68;;;;;;;;;;5098839;28;20055;-76
2023/12/17 04:29:30;;;;;;;11.45;10.05;;;;;;;;;;5098806;28;20044;-76
2023/12/17 04:31:57;;;;;;;12.30;10.02;;;;;;;;;;5098979;28;20097;-76
2023/12/17 04:34:23;;;;;;;11.50;9.80;;;;;;;;;;5099536;28;20074;-75
2023/12/17 04:36:49;;;;;;;12.90;10.55;;;;;;;;;;5098575;28;20042;-76
2023/12/17 04:39:16;;;;;;;11.73;10.50;;;;;;;;;;5098914;28;20082;-75
2023/12/17 04:41:42;;;;;;;11.85;10.15;;;;;;;;;;5099425;28;20047;-76
2023/12/17 04:44:08;;;;;;;12.07;10.57;;;;;;;;;;5098307;28;20051;-76
2023/12/17 04:46:34;;;;;;;11.77;10.57;;;;;;;;;;5098495;28;20395;-76
2023/12/17 04:49:00;;;;;;;14.05;11.30;;;;;;;;;;5098438;28;20108;-76
2023/12/17 04:51:26;;;;;;;11.13;10.13;;;;;;;;;;5098436;28;20083;-76
2023/12/17 04:53:53;;;;;;;10.45;9.38;;;;;;;;;;5080578;28;20143;-77
2023/12/17 04:56:21;;;;;;;11.25;10.18;;;;;;;;;;5098466;28;20043;-76
2023/12/17 04:58:47;;;;;;;13.15;9.60;;;;;;;;;;5098414;28;20417;-76
2023/12/17 05:01:14;;;;;;;12.07;9.82;;;;;;;;;;5098971;28;20048;-76
2023/12/17 05:03:40;;;;;;;11.80;9.63;;;;;;;;;;5081286;28;20036;-76
2023/12/17 05:06:06;;;;;;;11.30;10.23;;;;;;;;;;5081620;28;20042;-76
2023/12/17 05:08:33;;;;;;;12.55;11.25;;;;;;;;;;5098302;28;20555;-77
2023/12/17 05:10:59;;;;;;;14.30;9.88;;;;;;;;;;5097941;28;20047;-76
2023/12/17 05:13:25;;;;;;;13.23;10.60;;;;;;;;;;5097812;28;20395;-76
2023/12/17 05:15:51;;;;;;;13.07;10.52;;;;;;;;;;5097937;28;20086;-76
2023/12/17 05:18:17;;;;;;;11.60;9.65;;;;;;;;;;5081082;28;20044;-76
2023/12/17 05:20:45;;;;;;;11.43;10.20;;;;;;;;;;5081019;28;20154;-76
2023/12/17 05:23:12;;;;;;;12.38;10.13;;;;;;;;;;5097408;28;20048;-76
2023/12/17 05:25:39;;;;;;;11.10;9.85;;;;;;;;;;5081708;28;20075;-76
2023/12/17 05:28:07;;;;;;;10.27;9.27;;;;;;;;;;5098488;28;20419;-76
2023/12/17 05:30:33;;;;;;;10.90;9.65;;;;;;;;;;5097624;28;20444;-77
2023/12/17 05:32:59;;;;;;;10.10;9.23;;;;;;;;;;5098260;28;20039;-76
2023/12/17 05:35:25;;;;;;;13.13;9.13;;;;;;;;;;5097580;28;20364;-76
2023/12/17 05:37:51;;;;;;;10.00;8.82;;;;;;;;;;5080722;28;20079;-76
2023/12/17 05:40:17;;;;;;;10.43;9.13;;;;;;;;;;5097489;28;20060;-76
2023/12/17 05:42:43;;;;;;;9.93;9.00;;;;;;;;;;5081454;28;20063;-76
2023/12/17 05:45:09;;;;;;;7.88;7.18;;;;;;;;;;5097548;28;20096;-76
2023/12/17 05:47:35;;;;;;;7.88;6.35;;;;;;;;;;5080787;28;20120;-76
2023/12/17 05:50:03;;;;;;;7.75;6.95;;;;;;;;;;5081294;28;20055;-76
2023/12/17 05:52:29;;;;;;;6.93;6.22;;;;;;;;;;5080385;28;20064;-76
2023/12/17 05:54:55;;;;;;;7.25;6.55;;;;;;;;;;5079826;28;20055;-76
2023/12/17 05:57:21;;;;;;;8.60;6.22;;;;;;;;;;5080272;28;20062;-76
2023/12/17 05:59:47;;;;;;;8.32;6.40;;;;;;;;;;5080457;28;20101;-76
2023/12/17 06:02:13;;;;;;;6.93;6.28;;;;;;;;;;5097853;28;20051;-76
2023/12/17 06:04:39;;;;;;;8.13;6.45;;;;;;;;;;5080978;28;20051;-76
2023/12/17 06:07:06;;;;;;;7.88;6.72;;;;;;;;;;5096426;28;20055;-76
2023/12/17 06:09:32;;;;;;;7.53;6.80;;;;;;;;;;5096840;28;20047;-76
2023/12/17 06:11:58;;;;;;;10.13;7.05;;;;;;;;;;5096825;28;20055;-76
2023/12/17 06:14:24;;;;;;;8.25;7.50;;;;;;;;;;5080198;28;20514;-76
2023/12/17 06:16:50;;;;;;;8.15;7.20;;;;;;;;;;5097050;28;20089;-77
2023/12/17 06:19:16;;;;;;;10.32;7.53;;;;;;;;;;5115241;28;20039;-77
2023/12/17 06:21:42;;;;;;;10.20;7.97;;;;;;;;;;5079893;28;20212;-76
2023/12/17 06:24:09;;;;;;;7.95;7.05;;;;;;;;;;5097557;28;20083;-77
2023/12/17 06:26:36;;;;;;;7.75;6.93;;;;;;;;;;5096706;28;20043;-77
2023/12/17 06:29:02;;;;;;;8.90;8.00;;;;;;;;;;5096628;28;20048;-77
2023/12/17 06:31:28;;;;;;;9.52;8.63;;;;;;;;;;5114548;28;20048;-77
2023/12/17 06:33:54;;;;;;;8.43;7.63;;;;;;;;;;5096181;28;20584;-77
2023/12/17 06:36:20;;;;;;;8.65;7.85;;;;;;;;;;5097293;28;20096;-76
2023/12/17 06:38:47;;;;;;;8.65;7.53;;;;;;;;;;5079579;28;20047;-78
2023/12/17 06:41:13;;;;;;;9.40;8.48;;;;;;;;;;5114946;28;20059;-76
2023/12/17 06:43:40;;;;;;;11.13;8.43;;;;;;;;;;5080474;28;20055;-77
2023/12/17 06:46:07;;;;;;;8.45;7.65;;;;;;;;;;5097192;28;20048;-77
2023/12/17 06:48:36;;;;;;;7.95;7.32;;;;;;;;;;5097095;28;20138;-77
2023/12/17 06:51:05;;;;;;;8.50;7.63;;;;;;;;;;5097157;28;20132;-77
2023/12/17 06:53:31;;;;;;;8.57;7.78;;;;;;;;;;5095951;28;20062;-77
2023/12/17 06:55:57;;;;;;;10.70;7.40;;;;;;;;;;5096563;28;20047;-77
2023/12/17 06:58:24;;;;;;;12.75;7.88;;;;;;;;;;5096474;28;20054;-77
2023/12/17 07:00:50;;;;;;;10.88;8.82;;;;;;;;;;5096208;28;20130;-77
2023/12/17 07:03:20;;;;;;;11.57;8.40;;;;;;;;;;5096242;28;20083;-77
2023/12/17 07:05:46;;;;;;;9.90;8.30;;;;;;;;;;5096239;28;20054;-77
2023/12/17 07:08:12;;;;;;;16.60;9.50;;;;;;;;;;5096185;28;20508;-77
2023/12/17 07:10:38;;;;;;;13.02;10.32;;;;;;;;;;5096931;28;20383;-77
2023/12/17 07:13:04;;;;;;;12.00;10.38;;;;;;;;;;5096034;28;20047;-77
2023/12/17 07:15:31;;;;;;;12.23;10.25;;;;;;;;;;5079558;28;20126;-77
2023/12/17 07:17:57;;;;;;;13.63;11.30;;;;;;;;;;5098384;28;20039;-76
2023/12/17 07:20:23;;;;;;;14.73;11.05;;;;;;;;;;5100423;28;20044;-76
2023/12/17 07:22:49;;;;;;;16.13;12.05;;;;;;;;;;5100082;28;20047;-76
2023/12/17 07:25:17;;;;;;;13.35;11.38;;;;;;;;;;5100072;28;20048;-77
2023/12/17 07:27:43;;;;;;;18.95;11.98;;;;;;;;;;5100287;28;20502;-76
2023/12/17 07:30:10;;;;;;;13.75;12.00;;;;;;;;;;5100013;28;20055;-76
2023/12/17 07:32:36;;;;;;;15.27;10.90;;;;;;;;;;5100362;28;20483;-76
2023/12/17 07:35:03;;;;;;;12.10;10.75;;;;;;;;;;5099931;28;20040;-76
2023/12/17 07:37:29;;;;;;;15.18;10.70;;;;;;;;;;5099743;28;20148;-76
2023/12/17 07:39:58;;;;;;;11.38;9.75;;;;;;;;;;5118570;28;20039;-76
2023/12/17 07:42:24;;;;;;;11.52;9.23;;;;;;;;;;5118191;28;20046;-76
2023/12/17 07:44:50;;;;;;;12.40;8.68;;;;;;;;;;5099638;28;20056;-76
2023/12/17 07:47:16;;;;;;;9.88;7.80;;;;;;;;;;5099326;28;20048;-76
2023/12/17 07:49:43;;;;;;;9.68;7.60;;;;;;;;;;5082657;28;20492;-76
2023/12/17 07:52:09;;;;;;;11.35;7.55;;;;;;;;;;5082529;28;20468;-76
2023/12/17 07:54:35;;;;;;;11.35;7.97;;;;;;;;;;5099295;28;20052;-76
2023/12/17 07:57:01;;;;;;;12.07;8.07;;;;;;;;;;5099461;28;20390;-77
2023/12/17 07:59:27;;;;;;;10.75;7.88;;;;;;;;;;5083487;28;20099;-76
2023/12/17 08:01:53;;;;;;;12.27;7.50;;;;;;;;;;5099627;28;20047;-76
2023/12/17 08:04:19;;;;;;;11.98;7.22;;;;;;;;;;5099759;28;20135;-76
2023/12/17 08:06:45;;;;;;;12.88;7.90;;;;;;;;;;5099344;28;20368;-76
2023/12/17 08:09:11;;;;;;;11.95;7.50;;;;;;;;;;5100039;28;20048;-76
2023/12/17 08:11:37;;;;;;;11.00;7.15;;;;;;;;;;5100003;28;20055;-76
2023/12/17 08:14:04;;;;;;;9.13;6.45;;;;;;;;;;5099561;28;20081;-76
2023/12/17 08:16:30;;;;;;;7.38;6.15;;;;;;;;;;5099121;28;20544;-76
2023/12/17 08:18:56;;;;;;;12.45;6.25;;;;;;;;;;5117043;28;20048;-76
2023/12/17 08:21:22;;;;;;;9.82;5.70;;;;;;;;;;5116950;28;20209;-76
2023/12/17 08:23:48;;;;;;;9.23;6.10;;;;;;;;;;5116920;28;20039;-77
2023/12/17 08:26:15;;;;;;;10.60;5.85;;;;;;;;;;5099727;28;20046;-77
2023/12/17 08:28:41;;;;;;;10.98;6.18;;;;;;;;;;5081190;28;20054;-78
2023/12/17 08:31:09;;;;;;;8.80;6.70;;;;;;;;;;5082450;28;20588;-77
2023/12/17 08:33:36;;;;;;;9.63;6.28;;;;;;;;;;5098847;28;20391;-76
2023/12/17 08:36:02;;;;;;;11.50;5.88;;;;;;;;;;5099307;28;20087;-76
2023/12/17 08:38:28;;;;;;;10.02;5.82;;;;;;;;;;5116671;28;20418;-76
2023/12/17 08:40:54;;;;;;;10.23;6.00;;;;;;;;;;5098625;28;20051;-76
2023/12/17 08:43:20;;;;;;;9.75;6.43;;;;;;;;;;5116468;28;20044;-76
2023/12/17 08:45:46;;;;;;;7.25;5.70;;;;;;;;;;5098453;28;20103;-76
2023/12/17 08:48:13;;;;;;;9.05;6.13;;;;;;;;;;5098491;28;20387;-76
2023/12/17 08:50:39;;;;;;;10.13;6.53;;;;;;;;;;5081500;28;20054;-76
2023/12/17 08:53:05;;;;;;;12.45;7.25;;;;;;;;;;5116098;28;20517;-76
2023/12/17 08:55:31;;;;;;;8.48;6.78;;;;;;;;;;5098357;28;20059;-76
2023/12/17 08:57:57;;;;;;;11.25;6.80;;;;;;;;;;5099112;28;20047;-76
2023/12/17 09:00:23;;;;;;;11.35;7.28;;;;;;;;;;5099051;28;20116;-76
2023/12/17 09:02:49;;;;;;;10.52;8.20;;;;;;;;;;5098218;28;20130;-77
2023/12/17 09:05:15;;;;;;;13.75;9.07;;;;;;;;;;5098424;28;20130;-76
2023/12/17 09:07:41;;;;;;;12.65;9.05;;;;;;;;;;5097814;28;20047;-76
2023/12/17 09:10:07;;;;;;;17.08;11.77;;;;;;;;;;5080956;28;20468;-76
2023/12/17 09:12:34;;;;;;;19.45;12.73;;;;;;;;;;5098156;28;20042;-76
2023/12/17 09:15:00;;;;;;;16.20;12.45;;;;;;;;;;5098426;28;20429;-79
2023/12/17 09:17:26;;;;;;;19.15;13.18;;;;;;;;;;5097882;28;20050;-76
2023/12/17 09:19:53;;;;;;;18.75;14.40;;;;;;;;;;5081758;28;20599;-76
2023/12/17 09:22:19;;;;;;;18.13;14.25;;;;;;;;;;5097839;28;20051;-77
2023/12/17 09:24:45;;;;;;;19.88;16.10;;;;;;;;;;5097734;28;20422;-77
2023/12/17 09:27:11;;;;;;;22.52;16.77;;;;;;;;;;5097780;28;20126;-77
2023/12/17 09:29:37;;;;;;;24.60;18.30;;;;;;;;;;5098510;28;20082;-76
2023/12/17 09:32:03;;;;;;;31.48;19.35;;;;;;;;;;5097553;28;20059;-76
2023/12/17 09:34:29;;;;;;;27.08;20.52;;;;;;;;;;5097600;28;20047;-76
2023/12/17 09:36:56;;;;;;;26.27;20.02;;;;;;;;;;5115465;28;20043;-77
2023/12/17 09:39:22;;;;;;;28.50;21.08;;;;;;;;;;5097805;28;20043;-76
2023/12/17 09:41:48;;;;;;;30.92;20.95;;;;;;;;;;5115325;28;20100;-76
2023/12/17 09:44:14;;;;;;;30.13;23.00;;;;;;;;;;5097307;28;20134;-76
2023/12/17 09:46:40;;;;;;;29.55;22.88;;;;;;;;;;5097405;28;20126;-76
2023/12/17 09:49:06;;;;;;;30.23;22.85;;;;;;;;;;5097346;28;20500;-77
2023/12/17 09:51:36;;;;;;;30.02;23.63;;;;;;;;;;5097865;28;20463;-77
2023/12/17 09:54:05;;;;;;;31.17;23.55;;;;;;;;;;5096957;28;20059;-77
2023/12/17 09:56:31;;;;;;;31.05;23.48;;;;;;;;;;5097183;28;20053;-77
2023/12/17 09:58:57;;;;;;;35.03;23.92;;;;;;;;;;5115150;28;20047;-76
2023/12/17 10:01:24;;;;;;;33.83;23.13;;;;;;;;;;5115030;28;20047;-76
2023/12/17 10:03:50;;;;;;;33.33;23.42;;;;;;;;;;5097004;28;20048;-77
2023/12/17 10:06:19;;;;;;;29.55;23.30;;;;;;;;;;5097057;28;20127;-77
2023/12/17 10:08:45;;;;;;;30.50;22.65;;;;;;;;;;5080278;28;20051;-76
2023/12/17 10:11:12;;;;;;;30.23;22.30;;;;;;;;;;5080027;28;20176;-76
2023/12/17 10:13:38;;;;;;;26.55;21.38;;;;;;;;;;5115476;28;20066;-77
2023/12/17 10:16:04;;;;;;;27.20;20.25;;;;;;;;;;5097140;28;20101;-76
2023/12/17 10:18:30;;;;;;;28.63;21.33;;;;;;;;;;5079714;28;20442;-77
2023/12/17 10:20:56;;;;;;;27.13;19.52;;;;;;;;;;5079991;28;20051;-77
2023/12/17 10:23:22;;;;;;;23.92;18.48;;;;;;;;;;5097533;28;20051;-76
2023/12/17 10:25:58;;;;;;;21.08;18.15;;;;;;;;;;5079837;28;20047;-76
2023/12/17 10:28:25;;;;;;;18.45;15.30;;;;;;;;;;5097375;28;20066;-76
2023/12/17 10:30:51;;;;;;;20.23;16.38;;;;;;;;;;5079711;28;20098;-76
2023/12/17 10:33:21;;;;;;;21.40;16.23;;;;;;;;;;5097165;28;20035;-76
2023/12/17 10:35:47;;;;;;;20.73;15.35;;;;;;;;;;5096186;28;20044;-76
2023/12/17 10:38:15;;;;;;;16.65;14.88;;;;;;;;;;5079197;28;20055;-76
2023/12/17 10:40:42;;;;;;;16.98;14.13;;;;;;;;;;5096651;28;20083;-76
2023/12/17 10:43:09;;;;;;;16.63;13.93;;;;;;;;;;5096074;28;20127;-76
2023/12/17 10:45:35;;;;;;;15.23;13.32;;;;;;;;;;5096243;28;20047;-77
2023/12/17 10:48:02;;;;;;;15.73;13.05;;;;;;;;;;5097126;28;20039;-76
2023/12/17 10:50:28;;;;;;;14.68;12.90;;;;;;;;;;5096152;28;20051;-77
2023/12/17 10:52:54;;;;;;;15.50;13.75;;;;;;;;;;5078624;28;20035;-77
2023/12/17 10:55:22;;;;;;;18.48;14.70;;;;;;;;;;5096211;28;20055;-77
2023/12/17 10:57:53;;;;;;;18.75;14.88;;;;;;;;;;5097033;28;20043;-76
2023/12/17 11:00:21;;;;;;;17.05;14.32;;;;;;;;;;5097005;28;20475;-76
2023/12/17 11:02:49;;;;;;;19.60;15.75;;;;;;;;;;5096989;28;20052;-77
2023/12/17 11:05:15;;;;;;;17.55;13.82;;;;;;;;;;5096501;28;20043;-77
2023/12/17 11:07:42;;;;;;;22.25;15.75;;;;;;;;;;5095532;28;20040;-78
2023/12/17 11:10:12;;;;;;;23.00;17.23;;;;;;;;;;5078772;28;20218;-78
2023/12/17 11:12:42;;;;;;;23.75;17.90;;;;;;;;;;5095756;28;20048;-77
2023/12/17 11:15:08;;;;;;;24.00;17.60;;;;;;;;;;5113667;28;20051;-77
2023/12/17 11:17:34;;;;;;;23.48;17.85;;;;;;;;;;5095675;28;20043;-77
2023/12/17 11:20:01;;;;;;;25.88;20.65;;;;;;;;;;5079593;28;20379;-77
2023/12/17 11:22:28;;;;;;;25.33;18.88;;;;;;;;;;5079182;28;20138;-77
2023/12/17 11:24:55;;;;;;;25.23;19.85;;;;;;;;;;5113829;28;20053;-76
2023/12/17 11:27:22;;;;;;;28.77;20.55;;;;;;;;;;5113627;28;20073;-78
2023/12/17 11:29:52;;;;;;;26.48;20.40;;;;;;;;;;5078794;28;20054;-76
2023/12/17 11:32:24;;;;;;;28.70;20.25;;;;;;;;;;5095284;28;20050;-76
2023/12/17 11:34:50;;;;;;;25.48;20.15;;;;;;;;;;5096161;28;20055;-76
2023/12/17 11:37:18;;;;;;;27.13;20.70;;;;;;;;;;5096650;28;20043;-76
2023/12/17 11:39:45;;;;;;;30.23;22.60;;;;;;;;;;5079793;28;20061;-76
2023/12/17 11:42:11;;;;;;;29.77;22.20;;;;;;;;;;5079163;28;20050;-76
2023/12/17 11:44:42;;;;;;;27.42;21.88;;;;;;;;;;5095677;28;20490;-76
2023/12/17 11:47:08;;;;;;;30.20;22.15;;;;;;;;;;5096050;28;20088;-76
2023/12/17 11:49:34;;;;;;;29.55;21.33;;;;;;;;;;5096010;28;20055;-77
2023/12/17 11:52:10;;;;;;;28.83;21.23;;;;;;;;;;5095640;28;20046;-76
2023/12/17 11:54:36;;;;;;;29.90;22.00;;;;;;;;;;5078429;28;20403;-76
2023/12/17 11:57:02;;;;;;;34.00;24.10;;;;;;;;;;5095700;28;20101;-76
2023/12/17 11:59:34;;;;;;;27.58;22.42;;;;;;;;;;5095631;28;20430;-76
2023/12/17 12:02:02;;;;;;;30.55;23.23;;;;;;;;;;5095465;28;20055;-77
2023/12/17 12:04:37;;;;;;;29.70;20.90;;;;;;;;;;5079897;28;20468;-76
2023/12/17 12:07:03;;;;;;;32.60;23.80;;;;;;;;;;5099531;28;20104;-76
2023/12/17 12:09:30;;;;;;;29.88;22.95;;;;;;;;;;5098756;28;20553;-76
2023/12/17 12:11:56;;;;;;;29.52;22.13;;;;;;;;;;5100010;28;20051;-76
2023/12/17 12:14:22;;;;;;;31.63;22.35;;;;;;;;;;5099896;28;20108;-76
2023/12/17 12:16:48;;;;;;;29.73;22.13;;;;;;;;;;5082229;28;20135;-76
2023/12/17 12:19:14;;;;;;;29.10;18.98;;;;;;;;;;5082243;28;20491;-76
2023/12/17 12:21:40;;;;;;;28.55;20.77;;;;;;;;;;5099048;28;20111;-76
2023/12/17 12:24:09;;;;;;;27.55;21.52;;;;;;;;;;5098622;28;20402;-76
2023/12/17 12:26:36;;;;;;;28.00;20.55;;;;;;;;;;5099168;28;20036;-76
2023/12/17 12:29:03;;;;;;;31.38;21.52;;;;;;;;;;5098817;28;20467;-76
2023/12/17 12:31:30;;;;;;;27.08;19.55;;;;;;;;;;5117370;28;20475;-76
2023/12/17 12:33:59;;;;;;;26.95;21.05;;;;;;;;;;5098398;28;20496;-76
2023/12/17 12:36:25;;;;;;;30.27;23.15;;;;;;;;;;5098695;28;20134;-76
2023/12/17 12:39:01;;;;;;;29.13;21.90;;;;;;;;;;5098608;28;20047;-76
2023/12/17 12:41:29;;;;;;;30.17;21.35;;;;;;;;;;5081136;28;20525;-76
2023/12/17 12:43:55;;;;;;;27.15;21.25;;;;;;;;;;5098367;28;20066;-75
2023/12/17 12:46:22;;;;;;;30.40;22.23;;;;;;;;;;5098428;28;20105;-75
2023/12/17 12:48:57;;;;;;;28.38;21.20;;;;;;;;;;5098453;28;20086;-75
2023/12/17 12:51:24;;;;;;;27.98;20.88;;;;;;;;;;5098365;28;20509;-75
2023/12/17 12:53:50;;;;;;;28.38;21.23;;;;;;;;;;5081272;28;20135;-75
2023/12/17 12:56:17;;;;;;;28.38;21.17;;;;;;;;;;5081312;28;20051;-76
2023/12/17 12:58:43;;;;;;;28.33;21.23;;;;;;;;;;5097949;28;20058;-76
2023/12/17 13:01:09;;;;;;;24.95;20.13;;;;;;;;;;5098714;28;20434;-76
2023/12/17 13:03:38;;;;;;;27.48;19.17;;;;;;;;;;5098139;28;20051;-76
2023/12/17 13:06:05;;;;;;;27.30;21.48;;;;;;;;;;5098094;28;20051;-75
2023/12/17 13:08:31;;;;;;;23.35;18.83;;;;;;;;;;5097953;28;20047;-76
2023/12/17 13:10:57;;;;;;;20.40;16.55;;;;;;;;;;5098009;28;20055;-75
2023/12/17 13:13:23;;;;;;;22.75;18.33;;;;;;;;;;5080766;28;20052;-75
2023/12/17 13:15:50;;;;;;;23.40;19.20;;;;;;;;;;5096914;28;20043;-75
2023/12/17 13:18:16;;;;;;;20.17;17.80;;;;;;;;;;5080697;28;20047;-75
2023/12/17 13:20:42;;;;;;;20.70;18.30;;;;;;;;;;5115837;28;20048;-76
2023/12/17 13:23:08;;;;;;;20.63;17.92;;;;;;;;;;5097777;28;20051;-75
2023/12/17 13:25:34;;;;;;;19.10;15.98;;;;;;;;;;5098546;28;20043;-75
2023/12/17 13:28:00;;;;;;;17.02;15.00;;;;;;;;;;5098421;28;20047;-76
2023/12/17 13:30:29;;;;;;;17.13;14.80;;;;;;;;;;5097438;28;20055;-75
2023/12/17 13:33:00;;;;;;;15.50;13.82;;;;;;;;;;5097378;28;20064;-76
2023/12/17 13:35:26;;;;;;;15.57;13.93;;;;;;;;;;5098334;28;20146;-76
2023/12/17 13:37:52;;;;;;;15.48;13.88;;;;;;;;;;5097962;28;20388;-75
2023/12/17 13:40:18;;;;;;;15.32;13.40;;;;;;;;;;5097414;28;20044;-75
2023/12/17 13:42:45;;;;;;;17.38;15.07;;;;;;;;;;5081328;28;20048;-76
2023/12/17 13:45:11;;;;;;;16.50;14.80;;;;;;;;;;5097693;28;20047;-76
2023/12/17 13:47:37;;;;;;;17.55;15.25;;;;;;;;;;5080625;28;20116;-75
2023/12/17 13:50:04;;;;;;;18.42;15.32;;;;;;;;;;5097327;28;20047;-76
2023/12/17 13:52:30;;;;;;;17.58;15.30;;;;;;;;;;5097135;28;20046;-76
2023/12/17 13:54:56;;;;;;;16.70;14.82;;;;;;;;;;5096630;28;20179;-75
2023/12/17 13:57:23;;;;;;;16.35;14.63;;;;;;;;;;5080206;28;20048;-76
2023/12/17 13:59:49;;;;;;;20.77;16.05;;;;;;;;;;5063677;28;20050;-76
2023/12/17 14:02:15;;;;;;;18.00;16.10;;;;;;;;;;5097000;28;20047;-76
2023/12/17 14:04:41;;;;;;;17.33;15.45;;;;;;;;;;5080129;28;20448;-76
2023/12/17 14:07:08;;;;;;;20.10;15.73;;;;;;;;;;5096572;28;20047;-76
2023/12/17 14:09:34;;;;;;;19.17;15.85;;;;;;;;;;5114901;28;20222;-76
2023/12/17 14:12:00;;;;;;;20.98;15.90;;;;;;;;;;5079970;28;20461;-76
2023/12/17 14:14:29;;;;;;;19.25;14.80;;;;;;;;;;5096789;28;20040;-76
2023/12/17 14:16:55;;;;;;;19.63;14.55;;;;;;;;;;5080074;28;20083;-76
2023/12/17 14:19:21;;;;;;;20.35;15.70;;;;;;;;;;5096421;28;20078;-76
2023/12/17 14:21:48;;;;;;;18.55;15.68;;;;;;;;;;5096071;28;20044;-78